Patrick, South Carolina
Current Conditions -  °F | °C
As of 11:35 AM on Saturday 20 Dec 2014 (Local Time) from KCQW Reporting Station
Light Rain Light Rain  
Wind Chill: 37°   Ceiling: 3200
Heat Index: 41°   Visibility: 5mi
Dew Point: 39°   Wind: 6mph
Humidity: 93%   Direction: 70°ENE
Pressure: 30.27"   Gusts: NA
Location:  34.57°N, 80.05°W
Report Text: KCQW 201635Z AUTO 07005KT 5SM -RA OVC032 05/04 A3027 RMK AO2
Loading
Personal Weather Stations






























Interactive Weather Map New forecast layout! Learn more

10-Day Weather Forecast

Advertisements
Track Severe Weather on mobile